createdAt,value
2022-09-15T00:00:52.405Z,17.75
2022-09-15T00:03:21.185Z,17.80
2022-09-15T00:05:49.061Z,17.80
2022-09-15T00:08:16.928Z,17.82
2022-09-15T00:10:49.092Z,17.81
2022-09-15T00:13:17.990Z,17.81
2022-09-15T00:15:46.206Z,17.81
2022-09-15T00:18:15.727Z,17.81
2022-09-15T00:20:44.717Z,17.78
2022-09-15T00:23:14.007Z,17.80
2022-09-15T00:25:46.219Z,17.80
2022-09-15T00:28:14.541Z,17.79
2022-09-15T00:30:43.685Z,17.74
2022-09-15T00:33:11.652Z,17.73
2022-09-15T00:35:42.573Z,17.73
2022-09-15T00:38:12.115Z,17.72
2022-09-15T00:40:45.382Z,17.71
2022-09-15T00:43:13.966Z,17.66
2022-09-15T00:45:42.201Z,17.69
2022-09-15T00:48:18.272Z,17.70
2022-09-15T00:50:53.083Z,17.69
2022-09-15T00:53:23.512Z,17.71
2022-09-15T00:55:52.127Z,17.71
2022-09-15T00:58:26.740Z,17.71
2022-09-15T01:00:57.476Z,17.71
2022-09-15T01:03:26.311Z,17.74
2022-09-15T01:05:58.870Z,17.77
2022-09-15T01:08:32.710Z,17.80
2022-09-15T01:11:00.562Z,17.82
2022-09-15T01:13:29.643Z,17.90
2022-09-15T01:16:05.958Z,17.91
2022-09-15T01:18:42.072Z,17.91
2022-09-15T01:21:19.657Z,17.87
2022-09-15T01:24:15.058Z,17.86
2022-09-15T01:26:57.238Z,17.84
2022-09-15T01:30:05.716Z,17.84
2022-09-15T01:33:02.622Z,17.84
2022-09-15T01:35:38.236Z,17.81
2022-09-15T01:38:10.615Z,17.77
2022-09-15T01:40:42.852Z,17.74
2022-09-15T01:43:12.162Z,17.74
2022-09-15T01:45:44.799Z,17.69
2022-09-15T01:48:13.202Z,17.68
2022-09-15T01:50:45.505Z,17.69
2022-09-15T01:53:17.084Z,17.68
2022-09-15T01:55:49.841Z,17.67
2022-09-15T01:58:17.565Z,17.66
2022-09-15T02:00:50.914Z,17.65
2022-09-15T02:03:23.438Z,17.64
2022-09-15T02:05:58.894Z,17.63
2022-09-15T02:08:34.526Z,17.61
2022-09-15T02:11:12.773Z,17.58
2022-09-15T02:13:48.768Z,17.57
2022-09-15T02:16:21.680Z,17.58
2022-09-15T02:19:03.802Z,17.57
2022-09-15T02:21:40.454Z,17.54
2022-09-15T02:24:13.034Z,17.59
2022-09-15T02:26:43.096Z,17.54
2022-09-15T02:29:14.911Z,17.54
2022-09-15T02:31:46.236Z,17.50
2022-09-15T02:34:18.927Z,17.46
2022-09-15T02:36:47.533Z,17.38
2022-09-15T02:39:20.427Z,17.36
2022-09-15T02:41:49.007Z,17.37
2022-09-15T02:44:16.730Z,17.31
2022-09-15T02:46:45.780Z,17.28
2022-09-15T02:49:14.143Z,17.25
2022-09-15T02:51:41.882Z,17.23
2022-09-15T02:54:09.599Z,17.23
2022-09-15T02:56:37.804Z,17.20
2022-09-15T02:59:05.578Z,17.22
2022-09-15T03:01:34.750Z,17.21
2022-09-15T03:04:04.934Z,17.20
2022-09-15T03:06:36.059Z,17.21
2022-09-15T03:09:06.761Z,17.21
2022-09-15T03:11:35.480Z,17.18
2022-09-15T03:14:05.784Z,17.16
2022-09-15T03:16:35.536Z,17.16
2022-09-15T03:19:06.265Z,17.14
2022-09-15T03:21:34.024Z,17.13
2022-09-15T03:24:01.948Z,17.12
2022-09-15T03:26:29.690Z,17.13
2022-09-15T03:28:57.408Z,17.12
2022-09-15T03:31:25.113Z,17.12
2022-09-15T03:33:54.687Z,17.12
2022-09-15T03:36:23.766Z,17.10
2022-09-15T03:38:51.581Z,17.12
2022-09-15T03:41:19.864Z,17.08
2022-09-15T03:43:47.559Z,17.11
2022-09-15T03:46:15.559Z,17.11
2022-09-15T03:48:43.375Z,17.10
2022-09-15T03:51:12.050Z,17.12
2022-09-15T03:53:42.739Z,17.13
2022-09-15T03:56:13.053Z,17.16
2022-09-15T03:58:40.868Z,17.17
2022-09-15T04:01:08.738Z,17.17
2022-09-15T04:03:42.096Z,17.22
2022-09-15T04:06:12.069Z,17.22
2022-09-15T04:08:41.195Z,17.23
2022-09-15T04:11:10.508Z,17.21
2022-09-15T04:13:39.751Z,17.25
2022-09-15T04:16:11.005Z,17.27
2022-09-15T04:18:38.796Z,17.26
2022-09-15T04:21:08.344Z,17.23
2022-09-15T04:23:36.097Z,17.25
2022-09-15T04:26:07.990Z,17.25
2022-09-15T04:28:37.917Z,17.27
2022-09-15T04:31:07.745Z,17.28
2022-09-15T04:33:36.075Z,17.27
2022-09-15T04:36:06.146Z,17.29
2022-09-15T04:38:34.282Z,17.28
2022-09-15T04:41:02.048Z,17.27
2022-09-15T04:43:31.703Z,17.28
2022-09-15T04:46:00.252Z,17.27
2022-09-15T04:48:28.488Z,17.31
2022-09-15T04:51:01.255Z,17.26
2022-09-15T04:53:28.966Z,17.29
2022-09-15T04:56:03.636Z,17.27
2022-09-15T04:58:36.023Z,17.30
2022-09-15T05:01:08.911Z,17.29
2022-09-15T05:03:38.037Z,17.26
2022-09-15T05:06:07.392Z,17.27
2022-09-15T05:08:35.175Z,17.28
2022-09-15T05:11:03.812Z,17.27
2022-09-15T05:13:33.908Z,17.28
2022-09-15T05:16:05.557Z,17.28
2022-09-15T05:18:34.099Z,17.25
2022-09-15T05:21:02.179Z,17.22
2022-09-15T05:23:30.258Z,17.26
2022-09-15T05:25:58.575Z,17.25
2022-09-15T05:28:26.657Z,17.27
2022-09-15T05:30:56.828Z,17.29
2022-09-15T05:33:24.908Z,17.35
2022-09-15T05:35:53.683Z,17.38
2022-09-15T05:38:21.371Z,17.38
2022-09-15T05:40:49.508Z,17.37
2022-09-15T05:43:18.322Z,17.43
2022-09-15T05:45:54.618Z,17.41
2022-09-15T05:48:24.211Z,17.43
2022-09-15T05:50:53.458Z,17.47
2022-09-15T05:53:22.180Z,17.49
2022-09-15T05:55:50.070Z,17.47
2022-09-15T05:58:17.750Z,17.50
2022-09-15T06:00:45.520Z,17.53
2022-09-15T06:03:15.668Z,17.53
2022-09-15T06:05:44.778Z,17.52
2022-09-15T06:08:12.855Z,17.50
2022-09-15T06:10:40.638Z,17.49
2022-09-15T06:13:08.972Z,17.50
2022-09-15T06:15:36.695Z,17.52
2022-09-15T06:18:04.626Z,17.54
2022-09-15T06:20:32.303Z,17.59
2022-09-15T06:23:01.303Z,17.59
2022-09-15T06:25:29.074Z,17.57
2022-09-15T06:27:56.724Z,17.58
2022-09-15T06:30:24.903Z,17.60
2022-09-15T06:32:52.618Z,17.69
2022-09-15T06:35:20.420Z,17.71
2022-09-15T06:37:48.096Z,17.74
2022-09-15T06:40:17.627Z,17.75
2022-09-15T06:42:45.536Z,17.73
2022-09-15T06:45:13.385Z,17.68
2022-09-15T06:47:41.185Z,17.70
2022-09-15T06:50:09.571Z,17.64
2022-09-15T06:52:37.217Z,17.67
2022-09-15T06:55:05.548Z,17.64
2022-09-15T06:57:34.574Z,17.69
2022-09-15T07:00:02.949Z,17.70
2022-09-15T07:02:31.283Z,17.72
2022-09-15T07:04:59.287Z,17.78
2022-09-15T07:07:28.534Z,17.79
2022-09-15T07:09:56.211Z,17.80
2022-09-15T07:12:23.888Z,17.86
2022-09-15T07:14:52.912Z,17.84
2022-09-15T07:17:20.582Z,17.92
2022-09-15T07:19:48.248Z,18.00
2022-09-15T07:22:15.951Z,18.02
2022-09-15T07:24:43.633Z,18.05
2022-09-15T07:27:11.351Z,18.13
2022-09-15T07:29:39.220Z,18.16
2022-09-15T07:32:08.313Z,18.19
2022-09-15T07:34:36.126Z,18.15
2022-09-15T07:37:03.912Z,18.19
2022-09-15T07:39:33.097Z,18.15
2022-09-15T07:42:00.835Z,18.16
2022-09-15T07:44:28.510Z,18.19
2022-09-15T07:46:56.166Z,18.26
2022-09-15T07:49:25.216Z,18.39
2022-09-15T07:51:52.898Z,18.52
2022-09-15T07:54:22.861Z,18.67
2022-09-15T07:56:50.746Z,18.86
2022-09-15T07:59:18.407Z,19.04
2022-09-15T08:01:46.655Z,19.16
2022-09-15T08:04:14.411Z,19.23
2022-09-15T08:06:43.437Z,19.29
2022-09-15T08:09:14.617Z,19.38
2022-09-15T08:11:42.672Z,19.55
2022-09-15T08:14:10.935Z,19.85
2022-09-15T08:16:39.660Z,19.99
2022-09-15T08:19:07.639Z,20.29
2022-09-15T08:21:35.570Z,20.38
2022-09-15T08:24:04.902Z,20.49
2022-09-15T08:26:32.546Z,20.65
2022-09-15T08:29:00.629Z,20.75
2022-09-15T08:31:28.411Z,20.83
2022-09-15T08:33:57.426Z,20.87
2022-09-15T08:36:27.632Z,20.91
2022-09-15T08:38:55.781Z,21.15
2022-09-15T08:41:28.524Z,21.24
2022-09-15T08:44:02.215Z,21.33
2022-09-15T08:46:35.762Z,21.49
2022-09-15T08:49:10.431Z,21.55
2022-09-15T08:51:46.138Z,21.61
2022-09-15T08:54:19.640Z,21.61
2022-09-15T08:56:49.635Z,21.51
2022-09-15T08:59:19.368Z,21.54
2022-09-15T09:02:00.878Z,21.47
2022-09-15T09:04:54.298Z,21.49
2022-09-15T09:07:52.144Z,21.44
2022-09-15T09:10:26.997Z,21.44
2022-09-15T09:13:08.938Z,21.41
2022-09-15T09:15:50.187Z,21.30
2022-09-15T09:18:48.848Z,21.17
2022-09-15T09:21:23.703Z,21.18
2022-09-15T09:23:58.459Z,21.21
2022-09-15T09:26:26.876Z,21.18
2022-09-15T09:29:00.807Z,21.08
2022-09-15T09:31:29.922Z,21.01
2022-09-15T09:34:05.574Z,20.88
2022-09-15T09:36:34.516Z,20.95
2022-09-15T09:39:04.089Z,20.92
2022-09-15T09:41:36.543Z,20.81
2022-09-15T09:44:11.195Z,20.80
2022-09-15T09:46:39.438Z,20.86
2022-09-15T09:49:16.739Z,20.88
2022-09-15T09:51:52.133Z,20.90
2022-09-15T09:54:21.527Z,20.89
2022-09-15T09:56:51.034Z,20.82
2022-09-15T09:59:35.968Z,20.84
2022-09-15T10:02:15.713Z,21.13
2022-09-15T10:04:45.033Z,21.53
2022-09-15T10:07:14.055Z,21.89
2022-09-15T10:09:50.470Z,22.31
2022-09-15T10:12:25.533Z,22.41
2022-09-15T10:14:57.436Z,22.40
2022-09-15T10:17:28.760Z,22.39
2022-09-15T10:19:58.734Z,22.19
2022-09-15T10:22:31.539Z,21.82
2022-09-15T10:25:00.394Z,21.70
2022-09-15T10:27:30.971Z,21.59
2022-09-15T10:30:18.224Z,21.47
2022-09-15T10:32:45.870Z,21.28
2022-09-15T10:35:15.715Z,21.18
2022-09-15T10:38:03.350Z,21.11
2022-09-15T10:40:39.182Z,21.13
2022-09-15T10:43:20.097Z,21.04
2022-09-15T10:45:53.783Z,21.10
2022-09-15T10:48:32.646Z,21.05
2022-09-15T10:51:10.519Z,21.15
2022-09-15T10:54:02.434Z,21.24
2022-09-15T10:56:34.859Z,21.23
2022-09-15T10:59:27.540Z,21.18
2022-09-15T11:02:33.844Z,21.21
2022-09-15T11:05:21.948Z,21.17
2022-09-15T11:08:03.355Z,20.97
2022-09-15T11:10:36.703Z,20.93
2022-09-15T11:13:14.551Z,20.95
2022-09-15T11:16:00.456Z,21.19
2022-09-15T11:19:00.408Z,21.46
2022-09-15T11:21:34.891Z,21.66
2022-09-15T11:24:22.112Z,21.86
2022-09-15T11:26:53.575Z,21.96
2022-09-15T11:29:25.165Z,21.96
2022-09-15T11:31:58.976Z,21.95
2022-09-15T11:34:33.116Z,21.83
2022-09-15T11:37:04.814Z,21.68
2022-09-15T11:39:40.099Z,21.49
2022-09-15T11:42:12.547Z,21.14
2022-09-15T11:44:42.803Z,20.86
2022-09-15T11:47:29.337Z,20.85
2022-09-15T11:50:03.111Z,20.96
2022-09-15T11:52:45.471Z,20.98
2022-09-15T11:55:22.694Z,21.05
2022-09-15T11:57:59.158Z,21.14
2022-09-15T12:00:26.900Z,21.26
2022-09-15T12:03:08.053Z,21.31
2022-09-15T12:05:41.783Z,21.31
2022-09-15T12:08:19.343Z,21.22
2022-09-15T12:10:52.186Z,21.19
2022-09-15T12:13:22.206Z,21.13
2022-09-15T12:15:51.696Z,20.94
2022-09-15T12:18:38.478Z,21.03
2022-09-15T12:21:15.725Z,21.05
2022-09-15T12:23:48.721Z,20.95
2022-09-15T12:26:19.120Z,21.08
2022-09-15T12:28:58.657Z,21.09
2022-09-15T12:31:38.260Z,21.20
2022-09-15T12:34:30.306Z,21.30
2022-09-15T12:37:09.514Z,21.52
2022-09-15T12:39:42.201Z,21.82
2022-09-15T12:42:18.415Z,22.07
2022-09-15T12:44:48.945Z,22.34
2022-09-15T12:47:25.470Z,22.56
2022-09-15T12:49:57.163Z,22.47
2022-09-15T12:52:27.352Z,22.72
2022-09-15T12:55:00.699Z,22.88
2022-09-15T12:57:33.246Z,23.34
2022-09-15T13:00:30.653Z,23.68
2022-09-15T13:02:58.743Z,23.91
2022-09-15T13:05:53.562Z,23.50
2022-09-15T13:11:51.170Z,22.65
2022-09-15T13:14:26.650Z,22.19
2022-09-15T13:17:00.262Z,21.72
2022-09-15T13:19:32.219Z,21.33
2022-09-15T13:22:07.326Z,21.04
2022-09-15T13:27:14.332Z,20.41
2022-09-15T13:29:47.881Z,20.09
2022-09-15T13:32:28.917Z,19.87
2022-09-15T13:35:28.258Z,19.49
2022-09-15T13:38:22.029Z,19.38
2022-09-15T13:41:14.395Z,19.04
2022-09-15T13:44:19.195Z,18.73
2022-09-15T13:46:59.994Z,18.63
2022-09-15T13:49:48.039Z,18.37
2022-09-15T13:52:27.875Z,18.23
2022-09-15T13:55:20.860Z,18.20
2022-09-15T14:00:49.150Z,18.52
2022-09-15T14:03:25.616Z,18.69
2022-09-15T14:05:53.757Z,19.04
2022-09-15T14:08:25.513Z,18.97
2022-09-15T14:10:55.932Z,19.08
2022-09-15T14:13:26.566Z,19.11
2022-09-15T14:16:03.187Z,19.05
2022-09-15T14:18:32.397Z,19.08
2022-09-15T14:21:01.931Z,19.03
2022-09-15T14:23:30.730Z,18.97
2022-09-15T14:26:01.080Z,19.00
2022-09-15T14:28:33.137Z,19.02
2022-09-15T14:31:03.134Z,18.93
2022-09-15T14:33:37.980Z,18.92
2022-09-15T14:36:14.668Z,18.88
2022-09-15T14:38:42.542Z,18.92
2022-09-15T14:41:19.818Z,18.92
2022-09-15T14:43:47.536Z,19.06
2022-09-15T14:46:19.053Z,19.02
2022-09-15T14:48:46.892Z,18.95
2022-09-15T14:51:23.674Z,18.86
2022-09-15T14:53:56.003Z,18.78
2022-09-15T14:56:26.870Z,18.62
2022-09-15T14:58:57.423Z,18.64
2022-09-15T15:01:32.532Z,18.78
2022-09-15T15:04:10.061Z,18.89
2022-09-15T15:06:42.796Z,18.94
2022-09-15T15:09:18.463Z,18.82
2022-09-15T15:11:48.148Z,18.65
2022-09-15T15:14:16.504Z,18.16
2022-09-15T15:16:53.888Z,17.99
2022-09-15T15:19:33.127Z,18.04
2022-09-15T15:22:08.417Z,17.97
2022-09-15T15:24:41.757Z,17.82
2022-09-15T15:27:40.789Z,17.72
2022-09-15T15:30:34.292Z,17.64
2022-09-15T15:33:05.271Z,17.47
2022-09-15T15:35:35.676Z,17.42
2022-09-15T15:38:06.511Z,17.44
2022-09-15T15:40:36.081Z,17.36
2022-09-15T15:43:06.674Z,17.21
2022-09-15T15:45:36.157Z,17.19
2022-09-15T15:48:05.436Z,17.18
2022-09-15T15:50:33.388Z,17.13
2022-09-15T15:53:02.692Z,17.13
2022-09-15T15:55:38.907Z,17.16
2022-09-15T15:58:07.089Z,16.91
2022-09-15T16:00:38.661Z,16.93
2022-09-15T16:03:08.118Z,16.88
2022-09-15T16:05:35.975Z,16.87
2022-09-15T16:08:08.085Z,16.71
2022-09-15T16:10:41.726Z,16.70
2022-09-15T16:13:13.896Z,16.36
2022-09-15T16:15:42.397Z,16.40
2022-09-15T16:18:11.896Z,16.51
2022-09-15T16:20:40.171Z,16.56
2022-09-15T16:23:08.079Z,16.54
2022-09-15T16:25:41.555Z,16.50
2022-09-15T16:28:09.244Z,16.54
2022-09-15T16:30:36.950Z,16.54
2022-09-15T16:33:05.045Z,16.49
2022-09-15T16:35:40.221Z,16.52
2022-09-15T16:38:08.800Z,16.57
2022-09-15T16:40:37.531Z,16.59
2022-09-15T16:43:10.194Z,16.62
2022-09-15T16:45:40.807Z,16.47
2022-09-15T16:48:09.392Z,16.46
2022-09-15T16:50:42.693Z,16.46
2022-09-15T16:53:15.249Z,16.40
2022-09-15T16:55:46.173Z,16.35
2022-09-15T16:58:15.214Z,16.24
2022-09-15T17:00:45.148Z,16.16
2022-09-15T17:03:17.484Z,16.14
2022-09-15T17:05:49.623Z,16.12
2022-09-15T17:08:18.870Z,16.04
2022-09-15T17:10:47.021Z,16.05
2022-09-15T17:13:17.483Z,16.11
2022-09-15T17:15:46.481Z,15.92
2022-09-15T17:18:16.421Z,15.78
2022-09-15T17:20:47.159Z,15.69
2022-09-15T17:23:18.830Z,15.62
2022-09-15T17:25:51.259Z,15.65
2022-09-15T17:28:22.320Z,15.73
2022-09-15T17:30:51.485Z,15.61
2022-09-15T17:33:20.827Z,15.44
2022-09-15T17:35:50.530Z,15.47
2022-09-15T17:38:22.456Z,15.40
2022-09-15T17:40:51.266Z,15.37
2022-09-15T17:43:20.916Z,15.28
2022-09-15T17:45:50.058Z,15.24
2022-09-15T17:48:18.647Z,15.15
2022-09-15T17:50:48.601Z,15.07
2022-09-15T17:53:21.134Z,15.10
2022-09-15T17:55:49.500Z,15.02
2022-09-15T17:58:18.028Z,14.97
2022-09-15T18:00:46.811Z,14.99
2022-09-15T18:03:23.918Z,14.98
2022-09-15T18:05:52.726Z,14.88
2022-09-15T18:08:21.907Z,14.86
2022-09-15T18:10:49.788Z,14.82
2022-09-15T18:13:19.596Z,14.74
2022-09-15T18:15:48.788Z,14.65
2022-09-15T18:18:18.243Z,14.58
2022-09-15T18:20:45.950Z,14.62
2022-09-15T18:23:15.333Z,14.63
2022-09-15T18:25:45.312Z,14.63
2022-09-15T18:28:13.075Z,14.64
2022-09-15T18:30:42.341Z,14.67
2022-09-15T18:33:14.522Z,14.60
2022-09-15T18:35:43.403Z,14.61
2022-09-15T18:38:12.167Z,14.57
2022-09-15T18:40:44.152Z,14.53
2022-09-15T18:43:13.207Z,14.45
2022-09-15T18:45:41.793Z,14.42
2022-09-15T18:48:12.668Z,14.38
2022-09-15T18:50:41.540Z,14.27
2022-09-15T18:53:09.952Z,14.22
2022-09-15T18:55:37.916Z,14.19
2022-09-15T18:58:05.783Z,14.08
2022-09-15T19:00:34.874Z,14.10
2022-09-15T19:03:05.135Z,14.07
2022-09-15T19:05:33.451Z,14.02
2022-09-15T19:08:02.138Z,13.97
2022-09-15T19:10:29.968Z,13.93
2022-09-15T19:12:57.648Z,14.01
2022-09-15T19:15:25.329Z,13.98
2022-09-15T19:17:54.486Z,13.89
2022-09-15T19:20:22.147Z,13.78
2022-09-15T19:22:51.473Z,13.71
2022-09-15T19:25:19.576Z,13.71
2022-09-15T19:27:47.858Z,13.56
2022-09-15T19:30:15.954Z,13.48
2022-09-15T19:32:43.887Z,13.38
2022-09-15T19:35:13.052Z,13.32
2022-09-15T19:37:43.237Z,13.32
2022-09-15T19:40:14.094Z,13.39
2022-09-15T19:42:42.927Z,13.35
2022-09-15T19:45:12.404Z,13.33
2022-09-15T19:47:41.335Z,13.23
2022-09-15T19:50:11.601Z,13.20
2022-09-15T19:52:40.756Z,13.19
2022-09-15T19:55:10.252Z,13.19
2022-09-15T19:57:40.589Z,13.20
2022-09-15T20:00:10.839Z,13.17
2022-09-15T20:02:39.126Z,13.01
2022-09-15T20:05:08.663Z,13.06
2022-09-15T20:07:36.582Z,13.01
2022-09-15T20:10:06.717Z,13.02
2022-09-15T20:12:34.462Z,12.98
2022-09-15T20:15:02.258Z,12.92
2022-09-15T20:17:30.057Z,12.91
2022-09-15T20:19:57.838Z,12.86
2022-09-15T20:22:25.649Z,12.85
2022-09-15T20:24:53.330Z,12.83
2022-09-15T20:27:22.476Z,12.84
2022-09-15T20:29:50.458Z,12.90
2022-09-15T20:32:18.172Z,12.92
2022-09-15T20:34:46.294Z,12.90
2022-09-15T20:37:14.002Z,12.88
2022-09-15T20:39:41.710Z,12.84
2022-09-15T20:42:09.404Z,12.84
2022-09-15T20:44:38.500Z,12.87
2022-09-15T20:47:06.598Z,12.83
2022-09-15T20:49:34.354Z,12.87
2022-09-15T20:52:02.288Z,12.88
2022-09-15T20:54:29.991Z,12.84
2022-09-15T20:56:57.689Z,12.87
2022-09-15T20:59:25.916Z,12.87
2022-09-15T21:01:55.054Z,12.86
2022-09-15T21:04:22.755Z,12.84
2022-09-15T21:06:50.606Z,12.85
2022-09-15T21:09:18.535Z,12.83
2022-09-15T21:11:50.123Z,12.86
2022-09-15T21:14:20.521Z,12.77
2022-09-15T21:16:48.385Z,12.77
2022-09-15T21:19:17.698Z,12.79
2022-09-15T21:21:45.561Z,12.80
2022-09-15T21:24:13.840Z,12.78
2022-09-15T21:26:56.778Z,12.76
2022-09-15T21:29:24.614Z,12.74
2022-09-15T21:31:52.875Z,12.66
2022-09-15T21:34:22.055Z,12.58
2022-09-15T21:36:51.627Z,12.57
2022-09-15T21:39:19.283Z,12.62
2022-09-15T21:41:46.951Z,12.59
2022-09-15T21:44:14.803Z,12.60
2022-09-15T21:46:42.560Z,12.60
2022-09-15T21:49:10.361Z,12.65
2022-09-15T21:51:39.644Z,12.60
2022-09-15T21:54:07.499Z,12.61
2022-09-15T21:56:35.195Z,12.62
2022-09-15T21:59:03.590Z,12.55
2022-09-15T22:01:33.655Z,12.48
2022-09-15T22:04:03.181Z,12.48
2022-09-15T22:06:33.240Z,12.48
2022-09-15T22:09:04.057Z,12.50
2022-09-15T22:11:31.895Z,12.44
2022-09-15T22:13:59.681Z,12.42
2022-09-15T22:16:27.456Z,12.42
2022-09-15T22:18:55.367Z,12.40
2022-09-15T22:21:26.170Z,12.41
2022-09-15T22:23:56.092Z,12.41
2022-09-15T22:26:26.933Z,12.29
2022-09-15T22:28:55.285Z,12.32
2022-09-15T22:31:25.164Z,12.23
2022-09-15T22:33:54.225Z,12.33
2022-09-15T22:36:28.119Z,12.36
2022-09-15T22:39:03.357Z,12.33
2022-09-15T22:41:33.649Z,12.32
2022-09-15T22:44:01.445Z,12.26
2022-09-15T22:46:29.276Z,12.29
2022-09-15T22:48:57.382Z,12.23
2022-09-15T22:51:25.295Z,12.28
2022-09-15T22:53:54.541Z,12.29
2022-09-15T22:56:23.118Z,12.25
2022-09-15T22:58:52.544Z,12.25
2022-09-15T23:01:21.952Z,12.24
2022-09-15T23:03:51.510Z,12.25
2022-09-15T23:06:19.745Z,12.21
2022-09-15T23:08:52.538Z,12.19
2022-09-15T23:11:20.984Z,12.22
2022-09-15T23:13:49.078Z,12.30
2022-09-15T23:16:18.357Z,12.31
2022-09-15T23:18:46.463Z,12.27
2022-09-15T23:21:14.273Z,12.32
2022-09-15T23:23:44.193Z,12.21
2022-09-15T23:26:13.467Z,12.19
2022-09-15T23:28:41.431Z,12.19
2022-09-15T23:31:11.743Z,12.20
2022-09-15T23:33:41.267Z,12.21
2022-09-15T23:36:12.216Z,12.23
2022-09-15T23:38:41.481Z,12.20
2022-09-15T23:41:09.796Z,12.19
2022-09-15T23:43:37.640Z,12.21
2022-09-15T23:46:06.064Z,12.22
2022-09-15T23:48:33.783Z,12.27
2022-09-15T23:51:03.256Z,12.25
2022-09-15T23:53:31.085Z,12.27
2022-09-15T23:55:58.922Z,12.29
2022-09-15T23:58:26.654Z,12.32
